sensor_id;sensor_type;location;lat;lon;timestamp;pressure;altitude;pressure_sealevel;temperature;humidity
9419;BME280;4748;50.802;7.132;2022-11-20T00:01:28;100666.28;;;4.86;100.00
9419;BME280;4748;50.802;7.132;2022-11-20T00:03:55;100648.00;;;4.91;100.00
9419;BME280;4748;50.802;7.132;2022-11-20T00:06:22;100646.34;;;5.04;100.00
9419;BME280;4748;50.802;7.132;2022-11-20T00:08:48;100658.00;;;4.89;100.00
9419;BME280;4748;50.802;7.132;2022-11-20T00:11:19;100663.00;;;4.98;100.00
9419;BME280;4748;50.802;7.132;2022-11-20T00:13:46;100658.34;;;5.00;100.00
9419;BME280;4748;50.802;7.132;2022-11-20T00:16:15;100650.91;;;4.96;100.00
9419;BME280;4748;50.802;7.132;2022-11-20T00:18:41;100658.69;;;4.83;100.00
9419;BME280;4748;50.802;7.132;2022-11-20T00:21:27;100655.03;;;4.98;100.00
9419;BME280;4748;50.802;7.132;2022-11-20T00:23:54;100652.28;;;5.06;100.00
9419;BME280;4748;50.802;7.132;2022-11-20T00:26:21;100641.16;;;4.96;100.00
9419;BME280;4748;50.802;7.132;2022-11-20T00:28:54;100650.63;;;5.05;100.00
9419;BME280;4748;50.802;7.132;2022-11-20T00:31:20;100653.94;;;5.07;100.00
9419;BME280;4748;50.802;7.132;2022-11-20T00:33:46;100648.66;;;5.07;100.00
9419;BME280;4748;50.802;7.132;2022-11-20T00:36:16;100644.97;;;5.08;100.00
9419;BME280;4748;50.802;7.132;2022-11-20T00:38:42;100650.75;;;5.11;100.00
9419;BME280;4748;50.802;7.132;2022-11-20T00:41:09;100657.22;;;5.09;100.00
9419;BME280;4748;50.802;7.132;2022-11-20T00:43:36;100654.66;;;5.01;100.00
9419;BME280;4748;50.802;7.132;2022-11-20T00:46:07;100659.97;;;5.01;100.00
9419;BME280;4748;50.802;7.132;2022-11-20T00:48:33;100649.91;;;5.11;100.00
9419;BME280;4748;50.802;7.132;2022-11-20T00:50:58;100654.81;;;5.14;100.00
9419;BME280;4748;50.802;7.132;2022-11-20T00:53:24;100644.72;;;5.03;100.00
9419;BME280;4748;50.802;7.132;2022-11-20T00:55:58;100639.13;;;4.98;100.00
9419;BME280;4748;50.802;7.132;2022-11-20T00:58:25;100642.81;;;4.97;100.00
9419;BME280;4748;50.802;7.132;2022-11-20T01:00:53;100640.56;;;5.15;100.00
9419;BME280;4748;50.802;7.132;2022-11-20T01:03:18;100628.97;;;5.16;100.00
9419;BME280;4748;50.802;7.132;2022-11-20T01:05:44;100639.56;;;5.16;100.00
9419;BME280;4748;50.802;7.132;2022-11-20T01:08:09;100640.94;;;5.12;100.00
9419;BME280;4748;50.802;7.132;2022-11-20T01:10:35;100636.22;;;4.93;100.00
9419;BME280;4748;50.802;7.132;2022-11-20T01:13:00;100649.91;;;4.97;100.00
9419;BME280;4748;50.802;7.132;2022-11-20T01:15:44;100645.34;;;5.05;100.00
9419;BME280;4748;50.802;7.132;2022-11-20T01:18:09;100634.81;;;5.11;100.00
9419;BME280;4748;50.802;7.132;2022-11-20T01:20:35;100635.13;;;4.88;100.00
9419;BME280;4748;50.802;7.132;2022-11-20T01:23:02;100637.13;;;5.00;100.00
9419;BME280;4748;50.802;7.132;2022-11-20T01:25:27;100627.06;;;4.81;100.00
9419;BME280;4748;50.802;7.132;2022-11-20T01:27:52;100632.19;;;4.97;100.00
9419;BME280;4748;50.802;7.132;2022-11-20T01:30:18;100636.22;;;4.93;100.00
9419;BME280;4748;50.802;7.132;2022-11-20T01:32:43;100624.25;;;4.97;100.00
9419;BME280;4748;50.802;7.132;2022-11-20T01:35:09;100636.22;;;4.93;100.00
9419;BME280;4748;50.802;7.132;2022-11-20T01:37:35;100641.16;;;4.96;100.00
9419;BME280;4748;50.802;7.132;2022-11-20T01:40:00;100635.00;;;4.96;100.00
9419;BME280;4748;50.802;7.132;2022-11-20T01:42:26;100639.03;;;5.06;100.00
9419;BME280;4748;50.802;7.132;2022-11-20T01:48:14;100631.16;;;4.98;100.00
9419;BME280;4748;50.802;7.132;2022-11-20T01:50:40;100638.56;;;5.03;100.00
9419;BME280;4748;50.802;7.132;2022-11-20T01:53:10;100643.25;;;5.01;100.00
9419;BME280;4748;50.802;7.132;2022-11-20T01:55:44;100638.94;;;5.00;100.00
9419;BME280;4748;50.802;7.132;2022-11-20T01:58:10;100633.97;;;5.11;100.00
9419;BME280;4748;50.802;7.132;2022-11-20T02:00:36;100633.41;;;5.15;100.00
9419;BME280;4748;50.802;7.132;2022-11-20T02:03:06;100634.31;;;5.22;100.00
9419;BME280;4748;50.802;7.132;2022-11-20T02:08:05;100621.53;;;5.26;100.00
9419;BME280;4748;50.802;7.132;2022-11-20T02:10:31;100627.03;;;5.24;100.00
9419;BME280;4748;50.802;7.132;2022-11-20T02:12:57;100612.38;;;5.28;100.00
9419;BME280;4748;50.802;7.132;2022-11-20T02:15:41;100618.44;;;5.08;100.00
9419;BME280;4748;50.802;7.132;2022-11-20T02:18:07;100619.81;;;5.04;100.00
9419;BME280;4748;50.802;7.132;2022-11-20T02:20:34;100621.38;;;5.13;100.00
9419;BME280;4748;50.802;7.132;2022-11-20T02:23:05;100623.56;;;5.09;100.00
9419;BME280;4748;50.802;7.132;2022-11-20T02:25:34;100621.63;;;5.18;100.00
9419;BME280;4748;50.802;7.132;2022-11-20T02:28:00;100613.66;;;5.18;100.00
9419;BME280;4748;50.802;7.132;2022-11-20T02:30:26;100609.09;;;5.12;100.00
9419;BME280;4748;50.802;7.132;2022-11-20T02:32:51;100609.34;;;5.17;100.00
9419;BME280;4748;50.802;7.132;2022-11-20T02:37:48;100601.03;;;4.70;100.00
9419;BME280;4748;50.802;7.132;2022-11-20T02:40:15;100601.41;;;4.82;100.00
9419;BME280;4748;50.802;7.132;2022-11-20T02:42:41;100605.78;;;4.75;100.00
9419;BME280;4748;50.802;7.132;2022-11-20T02:45:06;100611.63;;;4.70;100.00
9419;BME280;4748;50.802;7.132;2022-11-20T02:47:32;100600.38;;;4.83;100.00
9419;BME280;4748;50.802;7.132;2022-11-20T02:49:58;100600.47;;;4.89;100.00
9419;BME280;4748;50.802;7.132;2022-11-20T02:52:24;100596.63;;;4.92;100.00
9419;BME280;4748;50.802;7.132;2022-11-20T02:54:49;100601.75;;;4.93;100.00
9419;BME280;4748;50.802;7.132;2022-11-20T02:57:14;100583.63;;;4.97;100.00
9419;BME280;4748;50.802;7.132;2022-11-20T02:59:40;100586.38;;;4.74;100.00
9419;BME280;4748;50.802;7.132;2022-11-20T03:02:05;100590.03;;;4.88;100.00
9419;BME280;4748;50.802;7.132;2022-11-20T03:04:30;100591.88;;;4.73;100.00
9419;BME280;4748;50.802;7.132;2022-11-20T03:06:56;100589.53;;;4.63;100.00
9419;BME280;4748;50.802;7.132;2022-11-20T03:09:21;100580.28;;;4.59;100.00
9419;BME280;4748;50.802;7.132;2022-11-20T03:11:47;100583.72;;;4.74;100.00
9419;BME280;4748;50.802;7.132;2022-11-20T03:14:12;100589.94;;;4.81;100.00
9419;BME280;4748;50.802;7.132;2022-11-20T03:16:38;100597.44;;;4.92;100.00
9419;BME280;4748;50.802;7.132;2022-11-20T03:19:03;100591.94;;;4.94;100.00
9419;BME280;4748;50.802;7.132;2022-11-20T03:21:28;100598.34;;;4.99;100.00
9419;BME280;4748;50.802;7.132;2022-11-20T03:23:54;100588.53;;;5.00;100.00
9419;BME280;4748;50.802;7.132;2022-11-20T03:26:22;100592.13;;;4.92;100.00
9419;BME280;4748;50.802;7.132;2022-11-20T03:28:53;100589.19;;;5.02;100.00
9419;BME280;4748;50.802;7.132;2022-11-20T03:31:22;100592.28;;;5.05;100.00
9419;BME280;4748;50.802;7.132;2022-11-20T03:33:48;100590.78;;;5.17;100.00
9419;BME280;4748;50.802;7.132;2022-11-20T03:36:14;100593.19;;;5.12;100.00
9419;BME280;4748;50.802;7.132;2022-11-20T03:38:40;100581.44;;;5.21;100.00
9419;BME280;4748;50.802;7.132;2022-11-20T03:41:08;100587.50;;;5.15;100.00
9419;BME280;4748;50.802;7.132;2022-11-20T03:43:34;100587.06;;;5.11;100.00
9419;BME280;4748;50.802;7.132;2022-11-20T03:46:00;100590.72;;;5.10;100.00
9419;BME280;4748;50.802;7.132;2022-11-20T03:48:25;100589.91;;;5.10;100.00
9419;BME280;4748;50.802;7.132;2022-11-20T03:50:52;100577.66;;;5.09;100.00
9419;BME280;4748;50.802;7.132;2022-11-20T03:53:18;100574.06;;;5.16;100.00
9419;BME280;4748;50.802;7.132;2022-11-20T03:55:45;100571.22;;;5.18;100.00
9419;BME280;4748;50.802;7.132;2022-11-20T03:58:10;100570.84;;;5.21;100.00
9419;BME280;4748;50.802;7.132;2022-11-20T04:00:35;100573.97;;;5.24;100.00
9419;BME280;4748;50.802;7.132;2022-11-20T04:03:01;100568.31;;;5.13;100.00
9419;BME280;4748;50.802;7.132;2022-11-20T04:05:27;100559.72;;;5.11;100.00
9419;BME280;4748;50.802;7.132;2022-11-20T04:07:53;100561.16;;;5.13;100.00
9419;BME280;4748;50.802;7.132;2022-11-20T04:10:19;100556.06;;;5.12;100.00
9419;BME280;4748;50.802;7.132;2022-11-20T04:12:44;100556.88;;;5.12;100.00
9419;BME280;4748;50.802;7.132;2022-11-20T04:15:09;100550.59;;;4.99;100.00
9419;BME280;4748;50.802;7.132;2022-11-20T04:17:35;100555.44;;;4.96;100.00
9419;BME280;4748;50.802;7.132;2022-11-20T04:20:01;100560.13;;;4.94;100.00
9419;BME280;4748;50.802;7.132;2022-11-20T04:22:26;100563.25;;;4.97;100.00
9419;BME280;4748;50.802;7.132;2022-11-20T04:24:51;100550.03;;;5.04;100.00
9419;BME280;4748;50.802;7.132;2022-11-20T04:27:17;100544.16;;;5.08;100.00
9419;BME280;4748;50.802;7.132;2022-11-20T04:29:42;100552.56;;;4.76;100.00
9419;BME280;4748;50.802;7.132;2022-11-20T04:32:08;100549.97;;;4.97;100.00
9419;BME280;4748;50.802;7.132;2022-11-20T04:34:33;100549.59;;;5.00;100.00
9419;BME280;4748;50.802;7.132;2022-11-20T04:36:58;100549.31;;;4.95;100.00
9419;BME280;4748;50.802;7.132;2022-11-20T04:39:24;100546.31;;;4.98;100.00
9419;BME280;4748;50.802;7.132;2022-11-20T04:41:49;100548.66;;;5.07;100.00
9419;BME280;4748;50.802;7.132;2022-11-20T04:44:35;100544.94;;;5.02;100.00
9419;BME280;4748;50.802;7.132;2022-11-20T04:47:00;100556.44;;;5.09;100.00
9419;BME280;4748;50.802;7.132;2022-11-20T04:49:25;100558.81;;;5.04;100.00
9419;BME280;4748;50.802;7.132;2022-11-20T04:51:53;100549.59;;;5.00;100.00
9419;BME280;4748;50.802;7.132;2022-11-20T04:54:19;100546.06;;;5.14;100.00
9419;BME280;4748;50.802;7.132;2022-11-20T04:56:47;100541.19;;;4.97;100.00
9419;BME280;4748;50.802;7.132;2022-11-20T04:59:13;100537.25;;;5.07;100.00
9419;BME280;4748;50.802;7.132;2022-11-20T05:01:38;100549.47;;;5.08;100.00
9419;BME280;4748;50.802;7.132;2022-11-20T05:04:03;100551.75;;;5.11;100.00
9419;BME280;4748;50.802;7.132;2022-11-20T05:06:29;100552.41;;;5.13;100.00
9419;BME280;4748;50.802;7.132;2022-11-20T05:08:54;100545.88;;;5.15;100.00
9419;BME280;4748;50.802;7.132;2022-11-20T05:11:20;100549.00;;;5.19;100.00
9419;BME280;4748;50.802;7.132;2022-11-20T05:13:46;100547.09;;;5.13;100.00
9419;BME280;4748;50.802;7.132;2022-11-20T05:16:14;100555.00;;;4.92;100.00
9419;BME280;4748;50.802;7.132;2022-11-20T05:18:40;100566.94;;;5.03;100.00
9419;BME280;4748;50.802;7.132;2022-11-20T05:21:06;100556.00;;;4.91;100.00
9419;BME280;4748;50.802;7.132;2022-11-20T05:23:32;100558.56;;;4.99;100.00
9419;BME280;4748;50.802;7.132;2022-11-20T05:25:58;100550.78;;;4.98;100.00
9419;BME280;4748;50.802;7.132;2022-11-20T05:28:24;100551.97;;;4.95;100.00
9419;BME280;4748;50.802;7.132;2022-11-20T05:30:50;100556.91;;;4.98;100.00
9419;BME280;4748;50.802;7.132;2022-11-20T05:33:16;100548.25;;;4.90;100.00
9419;BME280;4748;50.802;7.132;2022-11-20T05:35:42;100557.03;;;4.90;100.00
9419;BME280;4748;50.802;7.132;2022-11-20T05:38:07;100553.25;;;4.99;100.00
9419;BME280;4748;50.802;7.132;2022-11-20T05:40:32;100552.25;;;5.00;100.00
9419;BME280;4748;50.802;7.132;2022-11-20T05:42:58;100555.56;;;4.88;100.00
9419;BME280;4748;50.802;7.132;2022-11-20T05:45:24;100558.56;;;4.99;100.00
9419;BME280;4748;50.802;7.132;2022-11-20T05:47:49;100558.81;;;5.04;100.00
9419;BME280;4748;50.802;7.132;2022-11-20T05:50:15;100562.31;;;5.05;100.00
9419;BME280;4748;50.802;7.132;2022-11-20T05:52:40;100564.13;;;5.04;100.00
9419;BME280;4748;50.802;7.132;2022-11-20T05:55:06;100557.00;;;5.05;100.00
9419;BME280;4748;50.802;7.132;2022-11-20T05:57:32;100561.13;;;5.07;100.00
9419;BME280;4748;50.802;7.132;2022-11-20T05:59:57;100570.97;;;5.13;100.00
9419;BME280;4748;50.802;7.132;2022-11-20T06:02:22;100562.13;;;5.06;100.00
9419;BME280;4748;50.802;7.132;2022-11-20T06:04:48;100570.78;;;5.14;100.00
9419;BME280;4748;50.802;7.132;2022-11-20T06:07:13;100567.66;;;5.11;100.00
9419;BME280;4748;50.802;7.132;2022-11-20T06:09:39;100567.03;;;5.09;100.00
9419;BME280;4748;50.802;7.132;2022-11-20T06:12:05;100572.97;;;5.11;100.00
9419;BME280;4748;50.802;7.132;2022-11-20T06:14:30;100567.50;;;4.98;100.00
9419;BME280;4748;50.802;7.132;2022-11-20T06:16:55;100573.47;;;5.00;100.00
9419;BME280;4748;50.802;7.132;2022-11-20T06:19:21;100570.81;;;5.00;100.00
9419;BME280;4748;50.802;7.132;2022-11-20T06:21:48;100570.63;;;5.02;100.00
9419;BME280;4748;50.802;7.132;2022-11-20T06:24:14;100567.78;;;5.03;100.00
9419;BME280;4748;50.802;7.132;2022-11-20T06:26:39;100566.91;;;4.96;100.00
9419;BME280;4748;50.802;7.132;2022-11-20T06:29:05;100557.84;;;4.91;100.00
9419;BME280;4748;50.802;7.132;2022-11-20T06:31:30;100553.72;;;4.88;100.00
9419;BME280;4748;50.802;7.132;2022-11-20T06:34:00;100560.31;;;4.92;100.00
9419;BME280;4748;50.802;7.132;2022-11-20T06:36:25;100564.09;;;4.83;100.00
9419;BME280;4748;50.802;7.132;2022-11-20T06:38:50;100558.66;;;4.91;100.00
9419;BME280;4748;50.802;7.132;2022-11-20T06:41:18;100562.63;;;4.81;100.00
9419;BME280;4748;50.802;7.132;2022-11-20T06:43:44;100558.41;;;4.86;100.00
9419;BME280;4748;50.802;7.132;2022-11-20T06:46:11;100559.41;;;4.85;100.00
9419;BME280;4748;50.802;7.132;2022-11-20T06:48:37;100568.34;;;4.84;100.00
9419;BME280;4748;50.802;7.132;2022-11-20T06:51:07;100569.75;;;4.80;100.00
9419;BME280;4748;50.802;7.132;2022-11-20T06:53:33;100576.97;;;4.86;100.00
9419;BME280;4748;50.802;7.132;2022-11-20T06:55:58;100575.47;;;4.98;100.00
9419;BME280;4748;50.802;7.132;2022-11-20T06:58:26;100587.44;;;4.94;100.00
9419;BME280;4748;50.802;7.132;2022-11-20T07:00:53;100587.34;;;5.02;100.00
9419;BME280;4748;50.802;7.132;2022-11-20T07:03:18;100580.03;;;5.04;100.00
9419;BME280;4748;50.802;7.132;2022-11-20T07:05:44;100580.78;;;4.98;100.00
9419;BME280;4748;50.802;7.132;2022-11-20T07:08:11;100587.44;;;5.08;100.00
9419;BME280;4748;50.802;7.132;2022-11-20T07:10:37;100593.81;;;5.14;100.00
9419;BME280;4748;50.802;7.132;2022-11-20T07:13:03;100593.47;;;5.03;100.00
9419;BME280;4748;50.802;7.132;2022-11-20T07:15:28;100584.09;;;4.86;100.00
9419;BME280;4748;50.802;7.132;2022-11-20T07:17:53;100594.84;;;5.13;100.00
9419;BME280;4748;50.802;7.132;2022-11-20T07:20:19;100594.31;;;5.03;100.00
9419;BME280;4748;50.802;7.132;2022-11-20T07:22:44;100596.09;;;5.17;100.00
9419;BME280;4748;50.802;7.132;2022-11-20T07:25:10;100597.38;;;5.21;100.00
9419;BME280;4748;50.802;7.132;2022-11-20T07:27:36;100597.84;;;5.24;100.00
9419;BME280;4748;50.802;7.132;2022-11-20T07:30:02;100604.44;;;5.14;100.00
9419;BME280;4748;50.802;7.132;2022-11-20T07:32:28;100606.69;;;5.17;100.00
9419;BME280;4748;50.802;7.132;2022-11-20T07:34:53;100600.69;;;5.23;100.00
9419;BME280;4748;50.802;7.132;2022-11-20T07:37:18;100603.56;;;5.28;100.00
9419;BME280;4748;50.802;7.132;2022-11-20T07:39:44;100594.25;;;5.32;100.00
9419;BME280;4748;50.802;7.132;2022-11-20T07:42:09;100603.72;;;5.41;100.00
9419;BME280;4748;50.802;7.132;2022-11-20T07:44:35;100600.69;;;5.44;100.00
9419;BME280;4748;50.802;7.132;2022-11-20T07:47:01;100602.81;;;5.48;100.00
9419;BME280;4748;50.802;7.132;2022-11-20T07:49:26;100608.53;;;5.52;100.00
9419;BME280;4748;50.802;7.132;2022-11-20T07:51:52;100600.63;;;5.37;100.00
9419;BME280;4748;50.802;7.132;2022-11-20T07:54:21;100600.31;;;5.47;100.00
9419;BME280;4748;50.802;7.132;2022-11-20T07:56:47;100607.03;;;5.43;100.00
9419;BME280;4748;50.802;7.132;2022-11-20T07:59:13;100592.81;;;5.50;100.00
9419;BME280;4748;50.802;7.132;2022-11-20T08:01:39;100598.00;;;5.58;100.00
9419;BME280;4748;50.802;7.132;2022-11-20T08:04:05;100598.72;;;5.52;100.00
9419;BME280;4748;50.802;7.132;2022-11-20T08:06:30;100595.78;;;5.61;100.00
9419;BME280;4748;50.802;7.132;2022-11-20T08:08:55;100601.47;;;5.58;100.00
9419;BME280;4748;50.802;7.132;2022-11-20T08:11:21;100607.38;;;5.75;100.00
9419;BME280;4748;50.802;7.132;2022-11-20T08:14:05;100606.28;;;5.69;100.00
9419;BME280;4748;50.802;7.132;2022-11-20T08:16:47;100599.56;;;5.73;100.00
9419;BME280;4748;50.802;7.132;2022-11-20T08:19:15;100598.31;;;5.90;100.00
9419;BME280;4748;50.802;7.132;2022-11-20T08:21:41;100594.19;;;5.88;100.00
9419;BME280;4748;50.802;7.132;2022-11-20T08:24:07;100593.56;;;5.86;100.00
9419;BME280;4748;50.802;7.132;2022-11-20T08:26:34;100602.81;;;5.90;100.00
9419;BME280;4748;50.802;7.132;2022-11-20T08:28:59;100602.63;;;5.91;100.00
9419;BME280;4748;50.802;7.132;2022-11-20T08:31:26;100594.88;;;5.96;100.00
9419;BME280;4748;50.802;7.132;2022-11-20T08:33:52;100593.88;;;5.97;100.00
9419;BME280;4748;50.802;7.132;2022-11-20T08:36:18;100597.50;;;5.90;100.00
9419;BME280;4748;50.802;7.132;2022-11-20T08:38:54;100601.06;;;6.03;100.00
9419;BME280;4748;50.802;7.132;2022-11-20T08:41:21;100604.78;;;6.02;100.00
9419;BME280;4748;50.802;7.132;2022-11-20T08:43:52;100606.78;;;6.00;100.00
9419;BME280;4748;50.802;7.132;2022-11-20T08:46:18;100606.00;;;6.06;100.00
9419;BME280;4748;50.802;7.132;2022-11-20T08:48:44;100604.63;;;6.10;100.00
9419;BME280;4748;50.802;7.132;2022-11-20T08:51:10;100612.19;;;6.13;100.00
9419;BME280;4748;50.802;7.132;2022-11-20T08:53:35;100604.09;;;6.21;100.00
9419;BME280;4748;50.802;7.132;2022-11-20T08:56:01;100597.38;;;6.25;100.00
9419;BME280;4748;50.802;7.132;2022-11-20T08:58:26;100604.31;;;6.26;100.00
9419;BME280;4748;50.802;7.132;2022-11-20T09:00:52;100604.00;;;6.35;100.00
9419;BME280;4748;50.802;7.132;2022-11-20T09:03:18;100602.00;;;6.44;100.00
9419;BME280;4748;50.802;7.132;2022-11-20T09:05:43;100601.69;;;6.53;100.00
9419;BME280;4748;50.802;7.132;2022-11-20T09:08:08;100602.75;;;6.65;100.00
9419;BME280;4748;50.802;7.132;2022-11-20T09:10:34;100604.13;;;6.55;100.00
9419;BME280;4748;50.802;7.132;2022-11-20T09:12:59;100597.22;;;6.60;100.00
9419;BME280;4748;50.802;7.132;2022-11-20T09:15:25;100598.91;;;6.67;100.00
9419;BME280;4748;50.802;7.132;2022-11-20T09:17:55;100595.59;;;6.65;100.00
9419;BME280;4748;50.802;7.132;2022-11-20T09:20:21;100599.50;;;6.69;100.00
9419;BME280;4748;50.802;7.132;2022-11-20T09:22:47;100590.97;;;6.80;100.00
9419;BME280;4748;50.802;7.132;2022-11-20T09:25:13;100581.34;;;6.79;100.00
9419;BME280;4748;50.802;7.132;2022-11-20T09:27:38;100590.53;;;6.77;100.00
9419;BME280;4748;50.802;7.132;2022-11-20T09:30:04;100580.72;;;6.77;100.00
9419;BME280;4748;50.802;7.132;2022-11-20T09:32:30;100590.19;;;6.86;100.00
9419;BME280;4748;50.802;7.132;2022-11-20T09:34:55;100595.03;;;6.76;100.00
9419;BME280;4748;50.802;7.132;2022-11-20T09:37:20;100588.94;;;6.82;100.00
9419;BME280;4748;50.802;7.132;2022-11-20T09:39:46;100585.47;;;6.82;100.00
9419;BME280;4748;50.802;7.132;2022-11-20T09:42:41;100584.47;;;6.89;100.00
9419;BME280;4748;50.802;7.132;2022-11-20T09:45:44;100574.06;;;6.94;100.00
9419;BME280;4748;50.802;7.132;2022-11-20T09:56:19;100580.09;;;7.22;100.00
9419;BME280;4748;50.802;7.132;2022-11-20T09:58:48;100587.88;;;7.17;100.00
9419;BME280;4748;50.802;7.132;2022-11-20T10:01:17;100578.47;;;7.27;100.00
9419;BME280;4748;50.802;7.132;2022-11-20T10:04:02;100578.28;;;7.22;100.00
9419;BME280;4748;50.802;7.132;2022-11-20T10:09:43;100573.78;;;7.36;100.00
9419;BME280;4748;50.802;7.132;2022-11-20T10:12:19;100573.59;;;7.50;100.00
9419;BME280;4748;50.802;7.132;2022-11-20T10:15:01;100580.78;;;7.56;100.00
9419;BME280;4748;50.802;7.132;2022-11-20T10:17:34;100578.97;;;7.57;100.00
9419;BME280;4748;50.802;7.132;2022-11-20T10:20:30;100572.63;;;7.77;100.00
9419;BME280;4748;50.802;7.132;2022-11-20T10:26:03;100561.56;;;7.61;100.00
9419;BME280;4748;50.802;7.132;2022-11-20T10:31:34;100546.78;;;7.52;100.00
9419;BME280;4748;50.802;7.132;2022-11-20T10:34:06;100542.72;;;7.62;100.00
9419;BME280;4748;50.802;7.132;2022-11-20T10:36:59;100541.88;;;7.74;100.00
9419;BME280;4748;50.802;7.132;2022-11-20T10:39:50;100523.22;;;7.74;100.00
9419;BME280;4748;50.802;7.132;2022-11-20T10:42:34;100520.75;;;7.86;100.00
9419;BME280;4748;50.802;7.132;2022-11-20T10:47:38;100509.69;;;8.08;100.00
9419;BME280;4748;50.802;7.132;2022-11-20T10:50:09;100508.44;;;8.11;100.00
9419;BME280;4748;50.802;7.132;2022-11-20T10:58:14;100509.69;;;7.95;100.00
9419;BME280;4748;50.802;7.132;2022-11-20T11:00:43;100501.09;;;8.00;100.00
9419;BME280;4748;50.802;7.132;2022-11-20T11:03:39;100500.28;;;7.73;100.00
9419;BME280;4748;50.802;7.132;2022-11-20T11:06:08;100496.16;;;7.90;100.00
9419;BME280;4748;50.802;7.132;2022-11-20T11:08:38;100489.63;;;7.73;100.00
9419;BME280;4748;50.802;7.132;2022-11-20T11:11:27;100491.47;;;7.73;100.00
9419;BME280;4748;50.802;7.132;2022-11-20T11:14:04;100483.06;;;7.76;100.00
9419;BME280;4748;50.802;7.132;2022-11-20T11:16:30;100473.25;;;7.76;100.00
9419;BME280;4748;50.802;7.132;2022-11-20T11:19:14;100468.13;;;7.75;100.00
9419;BME280;4748;50.802;7.132;2022-11-20T11:21:46;100469.53;;;7.64;100.00
9419;BME280;4748;50.802;7.132;2022-11-20T11:29:30;100456.22;;;7.84;100.00
9419;BME280;4748;50.802;7.132;2022-11-20T11:32:28;100458.00;;;8.03;100.00
9419;BME280;4748;50.802;7.132;2022-11-20T11:35:05;100444.75;;;7.83;100.00
9419;BME280;4748;50.802;7.132;2022-11-20T11:37:37;100440.59;;;8.07;100.00
9419;BME280;4748;50.802;7.132;2022-11-20T11:40:04;100440.78;;;8.12;100.00
9419;BME280;4748;50.802;7.132;2022-11-20T11:42:31;100433.38;;;8.26;100.00
9419;BME280;4748;50.802;7.132;2022-11-20T11:44:59;100435.81;;;8.34;100.00
9419;BME280;4748;50.802;7.132;2022-11-20T11:55:35;100428.09;;;7.94;100.00
9419;BME280;4748;50.802;7.132;2022-11-20T12:01:02;100421.56;;;7.84;100.00
9419;BME280;4748;50.802;7.132;2022-11-20T12:03:40;100427.50;;;7.86;100.00
9419;BME280;4748;50.802;7.132;2022-11-20T12:06:14;100413.53;;;7.90;100.00
9419;BME280;4748;50.802;7.132;2022-11-20T12:08:57;100411.69;;;7.97;100.00
9419;BME280;4748;50.802;7.132;2022-11-20T12:14:13;100393.28;;;7.83;100.00
9419;BME280;4748;50.802;7.132;2022-11-20T12:16:40;100397.16;;;7.93;100.00
9419;BME280;4748;50.802;7.132;2022-11-20T12:19:13;100383.66;;;7.82;100.00
9419;BME280;4748;50.802;7.132;2022-11-20T12:24:57;100374.84;;;7.81;100.00
9419;BME280;4748;50.802;7.132;2022-11-20T12:30:14;100371.13;;;7.89;100.00
9419;BME280;4748;50.802;7.132;2022-11-20T12:35:11;100372.59;;;7.85;100.00
9419;BME280;4748;50.802;7.132;2022-11-20T12:37:57;100367.47;;;7.70;100.00
9419;BME280;4748;50.802;7.132;2022-11-20T12:40:48;100356.19;;;7.88;100.00
9419;BME280;4748;50.802;7.132;2022-11-20T12:43:23;100355.72;;;7.97;100.00
9419;BME280;4748;50.802;7.132;2022-11-20T12:54:49;100341.59;;;8.03;100.00
9419;BME280;4748;50.802;7.132;2022-11-20T13:02:41;100333.97;;;8.07;100.00
9419;BME280;4748;50.802;7.132;2022-11-20T13:07:51;100323.91;;;8.15;100.00
9419;BME280;4748;50.802;7.132;2022-11-20T13:10:23;100320.31;;;8.34;100.00
9419;BME280;4748;50.802;7.132;2022-11-20T13:13:24;100311.38;;;8.22;100.00
9419;BME280;4748;50.802;7.132;2022-11-20T13:16:02;100303.53;;;8.27;100.00
9419;BME280;4748;50.802;7.132;2022-11-20T13:18:36;100299.25;;;8.26;100.00
9419;BME280;4748;50.802;7.132;2022-11-20T13:21:13;100289.16;;;8.34;100.00
9419;BME280;4748;50.802;7.132;2022-11-20T13:23:39;100288.53;;;8.32;100.00
9419;BME280;4748;50.802;7.132;2022-11-20T13:26:24;100292.44;;;8.30;100.00
9419;BME280;4748;50.802;7.132;2022-11-20T13:29:09;100277.63;;;8.40;100.00
9419;BME280;4748;50.802;7.132;2022-11-20T13:31:40;100274.41;;;8.32;100.00
9419;BME280;4748;50.802;7.132;2022-11-20T13:34:12;100265.63;;;8.25;100.00
9419;BME280;4748;50.802;7.132;2022-11-20T13:36:49;100275.34;;;8.13;100.00
9419;BME280;4748;50.802;7.132;2022-11-20T13:39:27;100273.53;;;7.94;100.00
9419;BME280;4748;50.802;7.132;2022-11-20T13:42:01;100266.69;;;8.11;100.00
9419;BME280;4748;50.802;7.132;2022-11-20T13:44:33;100256.19;;;8.22;100.00
9419;BME280;4748;50.802;7.132;2022-11-20T13:47:00;100248.75;;;8.31;100.00
9419;BME280;4748;50.802;7.132;2022-11-20T13:49:44;100249.38;;;8.33;100.00
9419;BME280;4748;50.802;7.132;2022-11-20T13:54:59;100240.97;;;8.29;100.00
9419;BME280;4748;50.802;7.132;2022-11-20T13:57:54;100233.19;;;8.28;100.00
9419;BME280;4748;50.802;7.132;2022-11-20T14:00:24;100220.44;;;8.30;100.00
9419;BME280;4748;50.802;7.132;2022-11-20T14:03:01;100212.19;;;8.38;100.00
9419;BME280;4748;50.802;7.132;2022-11-20T14:05:37;100212.22;;;8.31;100.00
9419;BME280;4748;50.802;7.132;2022-11-20T14:08:06;100205.03;;;8.01;100.00
9419;BME280;4748;50.802;7.132;2022-11-20T14:10:37;100203.38;;;8.13;100.00
9419;BME280;4748;50.802;7.132;2022-11-20T14:13:20;100199.09;;;7.99;100.00
9419;BME280;4748;50.802;7.132;2022-11-20T14:15:46;100200.69;;;8.13;100.00
9419;BME280;4748;50.802;7.132;2022-11-20T14:18:21;100197.16;;;8.19;100.00
9419;BME280;4748;50.802;7.132;2022-11-20T14:20:49;100184.84;;;8.18;100.00
9419;BME280;4748;50.802;7.132;2022-11-20T14:23:27;100187.75;;;8.10;100.00
9419;BME280;4748;50.802;7.132;2022-11-20T14:25:53;100181.97;;;8.19;100.00
9419;BME280;4748;50.802;7.132;2022-11-20T14:28:26;100170.94;;;8.16;100.00
9419;BME280;4748;50.802;7.132;2022-11-20T14:30:52;100173.47;;;7.98;100.00
9419;BME280;4748;50.802;7.132;2022-11-20T14:33:18;100164.19;;;8.13;100.00
9419;BME280;4748;50.802;7.132;2022-11-20T14:35:49;100163.97;;;8.15;100.00
9419;BME280;4748;50.802;7.132;2022-11-20T14:38:17;100164.31;;;8.25;100.00
9419;BME280;4748;50.802;7.132;2022-11-20T14:40:43;100161.78;;;8.30;100.00